createdAt,value
2023-04-12T00:01:41.520Z,97685.50
2023-04-12T00:04:44.424Z,97696.44
2023-04-12T00:07:47.168Z,97683.38
2023-04-12T00:10:49.801Z,97681.19
2023-04-12T00:13:53.906Z,97686.41
2023-04-12T00:16:56.676Z,97674.56
2023-04-12T00:19:59.299Z,97679.38
2023-04-12T00:23:02.340Z,97668.34
2023-04-12T00:26:05.361Z,97665.28
2023-04-12T00:29:09.318Z,97666.53
2023-04-12T00:32:11.994Z,97666.84
2023-04-12T00:35:14.595Z,97665.19
2023-04-12T00:38:17.262Z,97672.84
2023-04-12T00:41:19.858Z,97666.69
2023-04-12T00:44:23.839Z,97661.63
2023-04-12T00:47:26.593Z,97658.78
2023-04-12T00:50:29.295Z,97657.47
2023-04-12T00:53:32.270Z,97651.06
2023-04-12T00:56:36.833Z,97648.25
2023-04-12T00:59:41.326Z,97644.38
2023-04-12T01:02:47.083Z,97646.06
2023-04-12T01:06:00.240Z,97640.84
2023-04-12T01:09:15.683Z,97635.16
2023-04-12T01:12:29.286Z,97630.31
2023-04-12T01:15:38.365Z,97627.81
2023-04-12T01:18:45.592Z,97630.25
2023-04-12T01:21:59.249Z,97618.63
2023-04-12T01:25:12.371Z,97621.22
2023-04-12T01:28:22.051Z,97611.72
2023-04-12T01:31:26.150Z,97616.47
2023-04-12T01:34:31.645Z,97607.69
2023-04-12T01:37:35.073Z,97607.78
2023-04-12T01:40:40.446Z,97605.75
2023-04-12T01:43:45.360Z,97592.50
2023-04-12T01:46:49.522Z,97580.84
2023-04-12T01:50:00.187Z,97586.06
2023-04-12T01:53:09.742Z,97580.13
2023-04-12T01:56:13.158Z,97565.47
2023-04-12T01:59:18.494Z,97561.69
2023-04-12T02:02:21.671Z,97555.72
2023-04-12T02:05:25.377Z,97554.16
2023-04-12T02:08:28.086Z,97556.91
2023-04-12T02:11:31.094Z,97545.63
2023-04-12T02:14:35.864Z,97532.75
2023-04-12T02:17:39.066Z,97524.94
2023-04-12T02:20:41.669Z,97518.50
2023-04-12T02:23:44.934Z,97522.97
2023-04-12T02:26:49.640Z,97514.19
2023-04-12T02:29:53.592Z,97507.44
2023-04-12T02:32:56.292Z,97502.56
2023-04-12T02:35:59.324Z,97497.22
2023-04-12T02:39:02.001Z,97492.66
2023-04-12T02:42:04.734Z,97489.03
2023-04-12T02:45:09.806Z,97494.41
2023-04-12T02:48:12.515Z,97482.38
2023-04-12T02:51:15.433Z,97472.16
2023-04-12T02:54:18.016Z,97470.50
2023-04-12T02:57:21.628Z,97467.31
2023-04-12T03:00:25.743Z,97465.50
2023-04-12T03:03:31.931Z,97453.25
2023-04-12T03:06:35.042Z,97442.19
2023-04-12T03:09:38.649Z,97431.78
2023-04-12T03:12:41.269Z,97424.28
2023-04-12T03:15:45.653Z,97425.69
2023-04-12T03:18:48.473Z,97417.91
2023-04-12T03:21:51.155Z,97411.53
2023-04-12T03:24:54.189Z,97411.03
2023-04-12T03:27:56.745Z,97396.06
2023-04-12T03:31:01.047Z,97394.91
2023-04-12T03:34:04.304Z,97395.44
2023-04-12T03:37:08.258Z,97385.00
2023-04-12T03:40:11.776Z,97373.78
2023-04-12T03:43:14.488Z,97379.66
2023-04-12T03:46:18.911Z,97376.47
2023-04-12T03:49:22.557Z,97363.81
2023-04-12T03:52:25.233Z,97361.69
2023-04-12T03:55:27.834Z,97360.63
2023-04-12T03:58:30.533Z,97361.53
2023-04-12T04:01:35.378Z,97349.38
2023-04-12T04:04:38.519Z,97344.88
2023-04-12T04:07:41.262Z,97344.88
2023-04-12T04:10:43.905Z,97347.88
2023-04-12T04:13:47.031Z,97332.94
2023-04-12T04:16:51.009Z,97333.53
2023-04-12T04:19:53.585Z,97325.78
2023-04-12T04:22:56.190Z,97319.13
2023-04-12T04:25:58.853Z,97306.59
2023-04-12T04:29:03.462Z,97296.41
2023-04-12T04:32:07.610Z,97304.44
2023-04-12T04:35:10.428Z,97293.00
2023-04-12T04:38:13.269Z,97299.09
2023-04-12T04:41:17.484Z,97293.94
2023-04-12T04:44:20.160Z,97294.75
2023-04-12T04:47:24.948Z,97294.97
2023-04-12T04:50:28.153Z,97289.91
2023-04-12T04:53:30.802Z,97277.81
2023-04-12T04:56:33.732Z,97280.22
2023-04-12T04:59:36.363Z,97282.59
2023-04-12T05:02:42.916Z,97285.09
2023-04-12T05:05:45.745Z,97290.47
2023-04-12T05:08:48.342Z,97277.88
2023-04-12T05:11:50.975Z,97274.69
2023-04-12T05:15:04.771Z,97275.94
2023-04-12T05:18:15.355Z,97270.88
2023-04-12T05:21:17.973Z,97268.72
2023-04-12T05:24:20.554Z,97259.88
2023-04-12T05:27:23.152Z,97260.59
2023-04-12T05:30:26.165Z,97256.97
2023-04-12T05:33:32.916Z,97252.06
2023-04-12T05:36:36.179Z,97239.47
2023-04-12T05:39:38.886Z,97235.38
2023-04-12T05:42:41.551Z,97235.72
2023-04-12T05:45:44.183Z,97227.09
2023-04-12T05:48:48.140Z,97226.59
2023-04-12T05:51:50.796Z,97215.66
2023-04-12T05:54:53.805Z,97203.94
2023-04-12T05:57:56.471Z,97200.03
2023-04-12T06:00:59.138Z,97203.53
2023-04-12T06:04:06.217Z,97183.94
2023-04-12T06:07:11.051Z,97188.63
2023-04-12T06:21:21.599Z,97174.53
2023-04-12T06:24:26.239Z,97157.97
2023-04-12T06:27:32.709Z,97163.56
2023-04-12T06:30:37.959Z,97150.38
2023-04-12T06:33:42.283Z,97144.94
2023-04-12T06:36:48.765Z,97128.88
2023-04-12T06:39:52.788Z,97139.03
2023-04-12T06:42:56.656Z,97118.91
2023-04-12T06:46:01.556Z,97124.69
2023-04-12T06:49:05.811Z,97112.06
2023-04-12T06:52:09.886Z,97108.53
2023-04-12T06:55:12.714Z,97107.47
2023-04-12T06:58:15.584Z,97106.97
2023-04-12T07:01:18.813Z,97105.38
2023-04-12T07:04:21.612Z,97092.03
2023-04-12T07:07:26.031Z,97079.34
2023-04-12T07:10:28.747Z,97074.97
2023-04-12T07:13:31.622Z,97057.34
2023-04-12T07:16:34.505Z,97057.13
2023-04-12T07:19:37.273Z,97053.75
2023-04-12T07:22:41.478Z,97055.75
2023-04-12T07:25:44.280Z,97047.44
2023-04-12T07:28:47.078Z,97038.09
2023-04-12T07:31:49.833Z,97023.94
2023-04-12T07:34:53.134Z,97026.22
2023-04-12T07:37:57.452Z,97007.75
2023-04-12T07:41:00.179Z,96985.72
2023-04-12T07:44:03.307Z,96975.50
2023-04-12T07:47:07.263Z,96982.59
2023-04-12T07:50:12.620Z,96970.28
2023-04-12T07:53:22.921Z,96953.91
2023-04-12T07:56:25.871Z,96960.16
2023-04-12T07:59:28.693Z,96959.66
2023-04-12T08:02:31.552Z,96950.25
2023-04-12T08:05:34.641Z,96950.91
2023-04-12T08:08:38.838Z,96954.56
2023-04-12T08:11:41.591Z,96941.34
2023-04-12T08:14:44.700Z,96937.19
2023-04-12T08:17:48.158Z,96941.94
2023-04-12T08:20:51.167Z,96942.53
2023-04-12T08:23:55.470Z,96939.72
2023-04-12T08:26:58.516Z,96931.69
2023-04-12T08:30:01.456Z,96930.28
2023-04-12T08:33:04.573Z,96929.38
2023-04-12T08:36:08.548Z,96930.97
2023-04-12T08:39:12.633Z,96932.72
2023-04-12T08:42:16.663Z,96938.38
2023-04-12T08:45:19.412Z,96932.91
2023-04-12T08:48:23.554Z,96941.13
2023-04-12T08:51:27.105Z,96927.66
2023-04-12T08:54:31.423Z,96933.44
2023-04-12T08:57:36.399Z,96927.66
2023-04-12T09:00:39.650Z,96930.66
2023-04-12T09:03:43.929Z,96927.03
2023-04-12T09:06:46.905Z,96920.44
2023-04-12T09:09:51.448Z,96917.00
2023-04-12T09:12:54.271Z,96908.81
2023-04-12T09:15:56.978Z,96901.56
2023-04-12T09:19:02.532Z,96889.28
2023-04-12T09:22:05.299Z,96889.66
2023-04-12T09:25:10.106Z,96892.88
2023-04-12T09:28:21.266Z,96887.88
2023-04-12T09:31:24.148Z,96884.25
2023-04-12T09:34:28.098Z,96893.91
2023-04-12T09:37:31.068Z,96886.94
2023-04-12T09:40:36.374Z,96882.56
2023-04-12T09:43:39.981Z,96881.31
2023-04-12T09:46:52.934Z,96880.84
2023-04-12T09:49:56.770Z,96877.22
2023-04-12T09:53:00.552Z,96876.25
2023-04-12T09:56:05.660Z,96870.72
2023-04-12T09:59:09.167Z,96867.25
2023-04-12T10:02:16.643Z,96859.34
2023-04-12T10:05:21.226Z,96856.81
2023-04-12T10:08:25.023Z,96861.25
2023-04-12T10:11:29.849Z,96850.78
2023-04-12T10:14:33.073Z,96859.47
2023-04-12T10:17:36.373Z,96841.66
2023-04-12T10:20:41.833Z,96838.84
2023-04-12T10:23:45.827Z,96837.72
2023-04-12T10:26:51.132Z,96842.88
2023-04-12T10:29:54.339Z,96849.66
2023-04-12T10:33:14.584Z,96848.00
2023-04-12T10:36:17.614Z,96849.56
2023-04-12T10:39:37.665Z,96844.63
2023-04-12T10:42:42.108Z,96835.56
2023-04-12T10:45:45.555Z,96837.44
2023-04-12T10:48:53.739Z,96834.16
2023-04-12T10:52:14.638Z,96825.88
2023-04-12T10:55:32.768Z,96827.69
2023-04-12T10:58:59.767Z,96823.91
2023-04-12T11:02:10.948Z,96821.75
2023-04-12T11:05:14.685Z,96809.50
2023-04-12T11:08:19.917Z,96804.78
2023-04-12T11:11:23.174Z,96815.16
2023-04-12T11:14:34.920Z,96809.31
2023-04-12T11:17:38.119Z,96807.59
2023-04-12T11:20:41.452Z,96793.44
2023-04-12T11:23:44.856Z,96786.69
2023-04-12T11:26:48.372Z,96788.34
2023-04-12T11:29:55.641Z,96796.91
2023-04-12T11:32:58.841Z,96776.41
2023-04-12T11:36:05.774Z,96779.38
2023-04-12T11:39:09.732Z,96780.75
2023-04-12T11:42:17.453Z,96779.78
2023-04-12T11:45:22.456Z,96774.44
2023-04-12T11:48:25.738Z,96766.56
2023-04-12T11:51:32.485Z,96757.22
2023-04-12T11:54:35.359Z,96758.13
2023-04-12T11:57:40.139Z,96756.66
2023-04-12T12:00:45.403Z,96765.31
2023-04-12T12:03:49.566Z,96763.53
2023-04-12T12:06:53.269Z,96755.44
2023-04-12T12:09:56.896Z,96749.47
2023-04-12T12:12:59.697Z,96754.53
2023-04-12T12:16:08.315Z,96758.94
2023-04-12T12:19:11.690Z,96732.63
2023-04-12T12:22:16.653Z,96731.94
2023-04-12T12:25:20.391Z,96725.00
2023-04-12T12:28:24.780Z,96721.25
2023-04-12T12:31:29.229Z,96744.22
2023-04-12T12:34:34.783Z,96741.31
2023-04-12T12:37:37.904Z,96728.13
2023-04-12T12:40:40.598Z,96735.94
2023-04-12T12:43:46.813Z,96721.00
2023-04-12T12:46:57.016Z,96718.56
2023-04-12T12:50:06.325Z,96702.13
2023-04-12T12:53:11.256Z,96699.78
2023-04-12T12:56:14.675Z,96696.56
2023-04-12T12:59:17.285Z,96683.09
2023-04-12T13:02:21.479Z,96698.34
2023-04-12T13:05:24.298Z,96717.13
2023-04-12T13:08:27.900Z,96701.47
2023-04-12T13:11:30.619Z,96714.34
2023-04-12T13:14:33.219Z,96696.47
2023-04-12T13:17:37.531Z,96685.72
2023-04-12T13:20:40.184Z,96688.59
2023-04-12T13:23:42.807Z,96674.00
2023-04-12T13:26:45.437Z,96676.88
2023-04-12T13:29:48.068Z,96673.69
2023-04-12T13:32:52.125Z,96675.38
2023-04-12T13:35:55.179Z,96683.22
2023-04-12T13:38:58.084Z,96693.59
2023-04-12T13:42:02.020Z,96676.88
2023-04-12T13:45:05.371Z,96662.63
2023-04-12T13:48:09.712Z,96657.78
2023-04-12T13:51:12.571Z,96652.66
2023-04-12T13:54:17.345Z,96638.78
2023-04-12T13:57:20.073Z,96639.84
2023-04-12T14:00:24.706Z,96641.91
2023-04-12T14:03:28.853Z,96640.50
2023-04-12T14:06:32.459Z,96638.09
2023-04-12T14:09:35.192Z,96631.38
2023-04-12T14:12:37.790Z,96645.69
2023-04-12T14:15:40.721Z,96631.19
2023-04-12T14:18:44.680Z,96622.56
2023-04-12T14:21:48.629Z,96638.50
2023-04-12T14:24:51.284Z,96609.59
2023-04-12T14:27:53.889Z,96620.03
2023-04-12T14:30:56.572Z,96617.34
2023-04-12T14:34:00.811Z,96597.94
2023-04-12T14:37:03.793Z,96605.34
2023-04-12T14:40:08.352Z,96592.63
2023-04-12T14:43:11.130Z,96587.31
2023-04-12T14:46:13.897Z,96592.81
2023-04-12T14:49:18.412Z,96586.88
2023-04-12T14:52:21.171Z,96588.69
2023-04-12T14:55:23.770Z,96584.84
2023-04-12T14:58:29.367Z,96602.50
2023-04-12T15:01:32.054Z,96590.72
2023-04-12T15:04:36.293Z,96596.88
2023-04-12T15:07:39.010Z,96605.59
2023-04-12T15:10:41.675Z,96630.84
2023-04-12T15:13:44.674Z,96682.03
2023-04-12T15:16:48.971Z,96718.13
2023-04-12T15:19:53.271Z,96725.44
2023-04-12T15:22:56.122Z,96733.19
2023-04-12T15:26:00.959Z,96735.53
2023-04-12T15:29:03.849Z,96737.66
2023-04-12T15:32:08.730Z,96745.38
2023-04-12T15:38:22.818Z,96762.88
2023-04-12T15:41:26.222Z,96753.06
2023-04-12T15:44:31.791Z,96750.25
2023-04-12T15:47:34.456Z,96760.53
2023-04-12T15:50:38.984Z,96755.31
2023-04-12T15:53:43.450Z,96737.63
2023-04-12T15:56:46.255Z,96731.13
2023-04-12T15:59:49.573Z,96736.31
2023-04-12T16:02:54.841Z,96730.41
2023-04-12T16:05:59.181Z,96731.53
2023-04-12T16:09:02.841Z,96735.72
2023-04-12T16:12:05.970Z,96742.09
2023-04-12T16:15:09.340Z,96736.94
2023-04-12T16:18:12.825Z,96739.88
2023-04-12T16:21:20.015Z,96758.50
2023-04-12T16:24:22.764Z,96755.44
2023-04-12T16:27:29.373Z,96758.53
2023-04-12T16:30:32.697Z,96756.84
2023-04-12T16:33:35.649Z,96741.97
2023-04-12T16:36:39.676Z,96744.50
2023-04-12T16:39:43.464Z,96740.25
2023-04-12T16:42:46.525Z,96743.41
2023-04-12T16:45:49.283Z,96737.84
2023-04-12T16:48:52.030Z,96730.72
2023-04-12T16:51:56.064Z,96741.03
2023-04-12T16:54:59.115Z,96739.94
2023-04-12T16:58:01.812Z,96740.88
2023-04-12T17:01:04.631Z,96752.91
2023-04-12T17:04:07.324Z,96749.56
2023-04-12T17:07:11.718Z,96757.97
2023-04-12T17:10:16.975Z,96752.72
2023-04-12T17:13:20.367Z,96755.47
2023-04-12T17:16:23.790Z,96757.56
2023-04-12T17:19:27.026Z,96763.75
2023-04-12T17:22:31.652Z,96773.44
2023-04-12T17:25:34.396Z,96777.25
2023-04-12T17:28:39.527Z,96790.69
2023-04-12T17:31:42.805Z,96801.63
2023-04-12T17:34:45.445Z,96788.81
2023-04-12T17:37:49.705Z,96794.03
2023-04-12T17:40:52.487Z,96809.22
2023-04-12T17:43:55.605Z,96805.75
2023-04-12T17:46:58.411Z,96810.00
2023-04-12T17:50:01.090Z,96804.66
2023-04-12T17:53:05.152Z,96796.75
2023-04-12T17:56:08.113Z,96798.00
2023-04-12T17:59:11.395Z,96775.22
2023-04-12T18:02:16.328Z,96770.97
2023-04-12T18:05:19.470Z,96761.97
2023-04-12T18:08:24.892Z,96768.59
2023-04-12T18:11:27.534Z,96785.66
2023-04-12T18:14:30.496Z,96792.50
2023-04-12T18:17:33.131Z,96810.97
2023-04-12T18:20:35.854Z,96823.28
2023-04-12T18:23:39.834Z,96823.47
2023-04-12T18:26:42.555Z,96814.13
2023-04-12T18:29:45.402Z,96810.66
2023-04-12T18:32:48.444Z,96818.41
2023-04-12T18:35:51.744Z,96823.28
2023-04-12T18:38:55.727Z,96827.56
2023-04-12T18:41:58.363Z,96830.47
2023-04-12T18:45:01.086Z,96832.88
2023-04-12T18:48:04.010Z,96831.59
2023-04-12T18:51:07.295Z,96833.94
2023-04-12T18:54:13.779Z,96834.81
2023-04-12T18:57:16.761Z,96841.53
2023-04-12T19:00:20.479Z,96858.44
2023-04-12T19:03:24.156Z,96866.88
2023-04-12T19:06:27.983Z,96863.34
2023-04-12T19:09:32.027Z,96867.34
2023-04-12T19:12:34.703Z,96867.19
2023-04-12T19:15:37.618Z,96875.03
2023-04-12T19:18:40.515Z,96875.41
2023-04-12T19:21:43.226Z,96872.66
2023-04-12T19:24:47.530Z,96876.75
2023-04-12T19:27:50.562Z,96874.38
2023-04-12T19:30:53.343Z,96863.78
2023-04-12T19:33:57.357Z,96870.47
2023-04-12T19:37:00.253Z,96880.69
2023-04-12T19:40:05.395Z,96897.75
2023-04-12T19:43:08.401Z,96895.69
2023-04-12T19:46:11.730Z,96881.69
2023-04-12T19:49:14.760Z,96887.38
2023-04-12T19:52:20.101Z,96893.13
2023-04-12T19:55:24.197Z,96879.66
2023-04-12T19:58:26.810Z,96882.69
2023-04-12T20:01:30.231Z,96881.34
2023-04-12T20:04:33.399Z,96883.81
2023-04-12T20:07:36.923Z,96883.97
2023-04-12T20:10:40.960Z,96890.09
2023-04-12T20:13:43.577Z,96890.41
2023-04-12T20:16:46.241Z,96886.34
2023-04-12T20:19:49.823Z,96885.38
2023-04-12T20:22:52.738Z,96886.00
2023-04-12T20:25:57.459Z,96885.53
2023-04-12T20:29:01.185Z,96904.31
2023-04-12T20:32:04.220Z,96920.59
2023-04-12T20:35:08.475Z,96935.78
2023-04-12T20:38:11.717Z,96952.69
2023-04-12T20:41:15.943Z,96972.41
2023-04-12T20:44:19.410Z,96988.09
2023-04-12T20:47:22.352Z,97013.63
2023-04-12T20:50:25.247Z,97025.94
2023-04-12T20:53:27.847Z,97026.03
2023-04-12T20:56:32.034Z,97015.59
2023-04-12T20:59:35.896Z,97015.84
2023-04-12T21:02:38.748Z,97015.00
2023-04-12T21:05:41.946Z,97012.50
2023-04-12T21:08:46.797Z,96996.81
2023-04-12T21:11:52.179Z,96993.63
2023-04-12T21:14:57.479Z,96991.97
2023-04-12T21:18:00.238Z,96991.59
2023-04-12T21:21:03.704Z,96988.41
2023-04-12T21:24:07.053Z,96981.03
2023-04-12T21:27:11.342Z,96978.38
2023-04-12T21:30:15.606Z,96975.81
2023-04-12T21:33:21.840Z,96983.84
2023-04-12T21:36:24.888Z,96989.59
2023-04-12T21:39:27.858Z,96997.00
2023-04-12T21:42:32.529Z,96998.19
2023-04-12T21:45:35.489Z,96993.94
2023-04-12T21:48:38.178Z,96996.31
2023-04-12T21:51:40.835Z,96989.91
2023-04-12T21:54:48.694Z,96999.41
2023-04-12T21:57:52.979Z,97020.41
2023-04-12T22:00:55.696Z,97028.75
2023-04-12T22:03:58.598Z,97023.78
2023-04-12T22:07:03.842Z,97028.94
2023-04-12T22:10:09.219Z,97030.53
2023-04-12T22:13:13.371Z,97039.94
2023-04-12T22:16:16.896Z,97035.88
2023-04-12T22:19:19.788Z,97048.25
2023-04-12T22:22:22.442Z,97042.97
2023-04-12T22:25:25.869Z,97058.50
2023-04-12T22:28:29.863Z,97074.00
2023-04-12T22:31:32.571Z,97072.13
2023-04-12T22:34:37.116Z,97084.91
2023-04-12T22:37:41.113Z,97078.69
2023-04-12T22:40:46.834Z,97086.78
2023-04-12T22:44:01.187Z,97083.34
2023-04-12T22:47:04.479Z,97082.44
2023-04-12T22:50:08.681Z,97080.66
2023-04-12T22:53:13.832Z,97083.69
2023-04-12T22:56:16.824Z,97089.44
2023-04-12T22:59:23.324Z,97088.78
2023-04-12T23:02:26.593Z,97090.16
2023-04-12T23:05:29.969Z,97080.50
2023-04-12T23:08:33.911Z,97077.75
2023-04-12T23:11:38.207Z,97086.88
2023-04-12T23:14:42.159Z,97094.97
2023-04-12T23:17:44.788Z,97082.38
2023-04-12T23:20:49.356Z,97087.41
2023-04-12T23:23:52.630Z,97091.47
2023-04-12T23:26:57.670Z,97082.13
2023-04-12T23:30:01.627Z,97077.09
2023-04-12T23:33:04.419Z,97065.53
2023-04-12T23:36:07.719Z,97067.72
2023-04-12T23:39:10.379Z,97063.53
2023-04-12T23:42:12.964Z,97051.38
2023-04-12T23:45:17.165Z,97056.94
2023-04-12T23:48:19.941Z,97054.31
2023-04-12T23:51:23.021Z,97073.28
2023-04-12T23:54:25.611Z,97072.97
2023-04-12T23:57:28.235Z,97072.53
